Terminal Aerodrome Forecast
Issued by NWS Chicago, IL

Home | Current Version | Previous Version | Text Only | Print | Product List | Glossary Off
Versions: 1 2 3 4 5 6 7 8 9 10 11 12 13 14 15 16 17 18 19 20 21 22 23 24 25 26 27 28 29 30 31 32 33 34 35

000
FTUS43 KLOT 300540
TAFRFD
TAF
KRFD 300540Z 3006/3106 03003KT 6SM BR SCT005 OVC025
     FM301000 00000KT 3SM BR BKN006 OVC020
     FM301500 00000KT P6SM SCT007 BKN020
     FM301800 VRB03KT P6SM SCT025=

USA.gov is the U.S. government's official web portal to all federal, state and local government web resources and services.